CUR weather

Hato International Airport
Willemstad, Curaçao

Public forecast

Using degrees Celsius for public forecast. Weather courtesy of forecast.io.

Current aviation weather report (METAR) for Hato International Airport

Retrieved 2020/08/08 05:00 UTC (17 minutes ago):

TNCC 080500Z 11012KT 9999 SCT017 28/24 Q1014 NOSIG

Aviation forecast (TAF) for Hato International Airport

Retrieved 2020-08-08 00:24 UTC (5 hours ago):

TAF TNCC 072315Z 0800/0824 09012KT 9999 SCT020 PROB30 TEMPO 0804/0814 7000 SHRA BKN014